This is the latest recevied weather packets stored in our database for station/object K1ADK-1. If no packets are shown the sender has not sent any weather packets the latest 10 day(s).
| Time | Temp. | Humidity | Pressure | Rain* | Wind** | Luminosity | Snow |
|---|---|---|---|---|---|---|---|
| 1777699517 | 10.56° C | 76% | 1011.6 hPa | 0 mm | - | 0 W/m² | - |
| 1777697717 | 10.56° C | 75% | 1011.8 hPa | 0 mm | - | 0 W/m² | - |
| 1777694137 | 10° C | 76% | 1011.7 hPa | 0 mm | - | 0 W/m² | - |
| 1777693517 | 10° C | 77% | 1011.8 hPa | 0 mm | - | 0 W/m² | - |
| 1777691116 | 10° C | 77% | 1012.2 hPa | 0 mm | - | 0 W/m² | - |
| 1777688157 | 10° C | 73% | 1012.2 hPa | 0 mm | - | 0 W/m² | - |
| 1777684516 | 10.56° C | 71% | 1011.8 hPa | 0 mm | - | 0 W/m² | - |
| 1777683917 | 10.56° C | 71% | 1011.8 hPa | 0 mm | - | 0 W/m² | - |
| 1777683336 | 10.56° C | 71% | 1011.9 hPa | 0 mm | - | 0 W/m² | - |
| 1777682136 | 10.56° C | 70% | 1011.9 hPa | 0 mm | - | 0 W/m² | - |
| 1777677916 | 11.67° C | 64% | 1011.1 hPa | 0 mm | - | 13 W/m² | - |
| 1777676716 | 12.22° C | 61% | 1011 hPa | 0 mm | - | 26 W/m² | - |
| 1777676116 | 12.78° C | 60% | 1010.9 hPa | 0 mm | - | 50 W/m² | - |
| 1777675516 | 12.78° C | 59% | 1011 hPa | 0 mm | - | 74 W/m² | - |
| 1777673116 | 14.44° C | 53% | 1011 hPa | 0 mm | - | 116 W/m² | - |
| 1777669516 | 17.78° C | 39% | 1010.4 hPa | 0 mm | - | 438 W/m² | - |
| 1777657516 | 16.11° C | 35% | 1011.7 hPa | 0 mm | - | 826 W/m² | - |
| 1777649116 | 12.78° C | 47% | 1012.8 hPa | 0 mm | - | 769 W/m² | - |
| 1777647316 | 12.22° C | 47% | 1012.7 hPa | 0 mm | - | 725 W/m² | - |
| 1777646716 | 12.22° C | 49% | 1012.7 hPa | 0 mm | - | 705 W/m² | - |
| 1777641315 | 10.56° C | 58% | 1012.7 hPa | 0 mm | - | 497 W/m² | - |
| 1777637115 | 8.89° C | 63% | 1012.7 hPa | 0 mm | - | 296 W/m² | - |
| 1777636535 | 8.33° C | 65% | 1012.7 hPa | 0 mm | - | 57 W/m² | - |
| 1777631117 | 7.22° C | 70% | 1011.8 hPa | 0 mm | - | 18 W/m² | - |
| 1777625117 | 7.22° C | 73% | 1010.9 hPa | 0 mm | - | 0 W/m² | - |
* Rain latest hour (hover to see other rain measurements)
** Current wind speed in m/s (hover to see current wind gust speed)